createdAt,value
2022-10-19T00:01:19.528Z,82.00
2022-10-19T00:06:29.896Z,81.80
2022-10-19T00:09:01.142Z,81.80
2022-10-19T00:11:30.053Z,81.57
2022-10-19T00:13:59.296Z,81.46
2022-10-19T00:16:30.286Z,81.45
2022-10-19T00:19:03.124Z,81.25
2022-10-19T00:21:31.019Z,81.17
2022-10-19T00:23:59.041Z,81.19
2022-10-19T00:26:27.264Z,81.29
2022-10-19T00:28:56.418Z,81.19
2022-10-19T00:31:25.544Z,80.98
2022-10-19T00:33:55.851Z,80.87
2022-10-19T00:36:25.188Z,80.72
2022-10-19T00:38:54.888Z,80.56
2022-10-19T00:41:25.132Z,80.31
2022-10-19T00:43:58.017Z,80.31
2022-10-19T00:46:28.749Z,80.04
2022-10-19T00:49:05.955Z,79.90
2022-10-19T00:51:41.477Z,79.68
2022-10-19T00:54:10.235Z,79.84
2022-10-19T00:56:42.716Z,79.60
2022-10-19T00:59:14.096Z,79.20
2022-10-19T01:01:44.438Z,78.98
2022-10-19T01:04:13.448Z,78.74
2022-10-19T01:06:42.212Z,78.66
2022-10-19T01:09:10.406Z,78.69
2022-10-19T01:11:51.747Z,78.51
2022-10-19T01:14:31.737Z,78.11
2022-10-19T01:17:11.516Z,77.97
2022-10-19T01:19:50.475Z,77.80
2022-10-19T01:22:57.719Z,77.60
2022-10-19T01:25:31.452Z,77.20
2022-10-19T01:28:32.897Z,77.28
2022-10-19T01:31:19.210Z,77.43
2022-10-19T01:34:02.114Z,77.49
2022-10-19T01:36:39.181Z,77.29
2022-10-19T01:39:16.401Z,77.03
2022-10-19T01:42:05.748Z,76.96
2022-10-19T01:45:14.027Z,76.85
2022-10-19T01:47:54.634Z,76.70
2022-10-19T01:50:30.330Z,76.75
2022-10-19T01:52:59.757Z,76.73
2022-10-19T01:55:28.671Z,76.75
2022-10-19T01:58:07.107Z,76.78
2022-10-19T02:00:40.030Z,77.00
2022-10-19T02:03:10.237Z,76.87
2022-10-19T02:05:40.676Z,76.82
2022-10-19T02:08:14.672Z,77.06
2022-10-19T02:10:45.346Z,76.96
2022-10-19T02:13:16.495Z,76.77
2022-10-19T02:15:47.994Z,76.70
2022-10-19T02:18:21.487Z,76.79
2022-10-19T02:20:49.441Z,77.07
2022-10-19T02:23:20.848Z,77.01
2022-10-19T02:25:48.741Z,77.18
2022-10-19T02:28:16.796Z,77.51
2022-10-19T02:30:44.661Z,77.70
2022-10-19T02:33:12.791Z,77.73
2022-10-19T02:35:40.840Z,77.66
2022-10-19T02:38:11.675Z,77.46
2022-10-19T02:40:45.461Z,77.63
2022-10-19T02:43:19.282Z,78.11
2022-10-19T02:45:51.145Z,78.32
2022-10-19T02:48:23.527Z,78.38
2022-10-19T02:50:52.149Z,78.11
2022-10-19T02:53:19.948Z,78.07
2022-10-19T02:55:49.145Z,77.59
2022-10-19T02:58:17.032Z,77.30
2022-10-19T03:00:44.930Z,76.96
2022-10-19T03:03:12.939Z,76.82
2022-10-19T03:05:40.735Z,76.84
2022-10-19T03:08:08.590Z,76.63
2022-10-19T03:10:36.449Z,76.58
2022-10-19T03:13:04.185Z,76.29
2022-10-19T03:15:31.856Z,76.27
2022-10-19T03:17:59.715Z,76.05
2022-10-19T03:20:27.646Z,75.68
2022-10-19T03:22:55.419Z,75.48
2022-10-19T03:25:23.166Z,75.56
2022-10-19T03:27:50.964Z,75.57
2022-10-19T03:30:18.738Z,75.45
2022-10-19T03:32:46.518Z,75.39
2022-10-19T03:35:14.375Z,75.64
2022-10-19T03:37:42.125Z,75.86
2022-10-19T03:40:10.188Z,75.89
2022-10-19T03:42:37.933Z,76.12
2022-10-19T03:45:06.217Z,76.09
2022-10-19T03:47:34.331Z,76.03
2022-10-19T03:50:02.236Z,76.10
2022-10-19T03:52:30.056Z,76.03
2022-10-19T03:54:57.832Z,76.04
2022-10-19T03:57:25.629Z,75.99
2022-10-19T03:59:53.492Z,76.19
2022-10-19T04:02:21.254Z,76.15
2022-10-19T04:04:49.024Z,75.99
2022-10-19T04:07:16.762Z,75.81
2022-10-19T04:09:44.694Z,76.16
2022-10-19T04:12:12.618Z,76.33
2022-10-19T04:14:56.219Z,76.71
2022-10-19T04:17:25.898Z,76.87
2022-10-19T04:19:53.791Z,77.15
2022-10-19T04:22:21.585Z,77.06
2022-10-19T04:24:49.373Z,77.17
2022-10-19T04:27:17.486Z,77.55
2022-10-19T04:29:45.245Z,77.60
2022-10-19T04:32:16.158Z,77.55
2022-10-19T04:34:43.932Z,77.38
2022-10-19T04:37:11.867Z,77.46
2022-10-19T04:39:41.250Z,77.49
2022-10-19T04:42:08.997Z,77.46
2022-10-19T04:44:36.788Z,77.55
2022-10-19T04:47:04.555Z,77.49
2022-10-19T04:49:32.561Z,77.64
2022-10-19T04:52:00.289Z,78.03
2022-10-19T04:54:28.073Z,78.14
2022-10-19T04:56:56.941Z,77.85
2022-10-19T04:59:24.783Z,77.57
2022-10-19T05:01:52.578Z,77.88
2022-10-19T05:04:20.420Z,77.76
2022-10-19T05:06:48.198Z,77.50
2022-10-19T05:09:16.173Z,77.01
2022-10-19T05:11:43.979Z,76.41
2022-10-19T05:14:11.707Z,75.86
2022-10-19T05:16:39.505Z,75.29
2022-10-19T05:19:08.029Z,75.10
2022-10-19T05:21:35.941Z,74.03
2022-10-19T05:24:04.007Z,73.61
2022-10-19T05:26:31.844Z,72.86
2022-10-19T05:29:04.562Z,72.74
2022-10-19T05:31:34.576Z,72.45
2022-10-19T05:34:04.109Z,71.90
2022-10-19T05:36:35.253Z,71.60
2022-10-19T05:39:17.593Z,71.79
2022-10-19T05:41:46.789Z,71.71
2022-10-19T05:44:19.878Z,71.92
2022-10-19T05:46:49.829Z,71.72
2022-10-19T05:49:19.940Z,71.41
2022-10-19T05:51:47.802Z,70.94
2022-10-19T05:54:15.537Z,70.44
2022-10-19T05:56:43.777Z,70.63
2022-10-19T05:59:18.733Z,70.49
2022-10-19T06:01:47.545Z,70.32
2022-10-19T06:06:48.219Z,70.28
2022-10-19T06:09:16.089Z,69.99
2022-10-19T06:11:44.058Z,69.90
2022-10-19T06:14:14.628Z,69.81
2022-10-19T06:16:42.813Z,69.90
2022-10-19T06:19:10.571Z,69.20
2022-10-19T06:21:40.674Z,69.02
2022-10-19T06:24:11.909Z,68.22
2022-10-19T06:26:39.797Z,67.66
2022-10-19T06:29:07.510Z,67.72
2022-10-19T06:31:36.674Z,67.66
2022-10-19T06:34:05.121Z,67.19
2022-10-19T06:36:33.613Z,67.25
2022-10-19T06:39:02.128Z,67.29
2022-10-19T06:41:31.605Z,67.28
2022-10-19T06:43:59.389Z,67.08
2022-10-19T06:46:27.924Z,66.60
2022-10-19T06:48:58.336Z,66.23
2022-10-19T06:51:27.878Z,65.70
2022-10-19T06:53:57.231Z,65.46
2022-10-19T06:56:26.799Z,64.91
2022-10-19T06:58:55.435Z,64.39
2022-10-19T07:01:24.445Z,63.78
2022-10-19T07:03:53.194Z,63.80
2022-10-19T07:06:21.724Z,64.03
2022-10-19T07:08:49.672Z,64.30
2022-10-19T07:11:20.098Z,63.46
2022-10-19T07:13:48.148Z,63.54
2022-10-19T07:16:21.108Z,63.47
2022-10-19T07:18:52.000Z,62.68
2022-10-19T07:21:22.576Z,62.16
2022-10-19T07:23:50.731Z,62.11
2022-10-19T07:26:23.869Z,61.68
2022-10-19T07:28:52.147Z,60.96
2022-10-19T07:31:22.390Z,60.72
2022-10-19T07:34:01.140Z,60.51
2022-10-19T07:36:31.157Z,59.97
2022-10-19T07:39:01.334Z,59.85
2022-10-19T07:41:29.173Z,59.85
2022-10-19T07:43:58.084Z,59.24
2022-10-19T07:46:33.881Z,59.33
2022-10-19T07:49:04.735Z,59.58
2022-10-19T07:51:32.548Z,59.08
2022-10-19T07:54:00.404Z,58.80
2022-10-19T07:56:28.884Z,58.87
2022-10-19T07:58:58.944Z,58.65
2022-10-19T08:01:35.269Z,58.40
2022-10-19T08:06:51.049Z,57.96
2022-10-19T08:09:50.748Z,57.77
2022-10-19T08:12:07.277Z,57.63
2022-10-19T08:14:35.721Z,58.08
2022-10-19T08:17:03.501Z,57.96
2022-10-19T08:19:31.461Z,58.59
2022-10-19T08:21:59.224Z,58.39
2022-10-19T08:24:26.972Z,57.54
2022-10-19T08:26:54.870Z,57.55
2022-10-19T08:29:23.794Z,57.99
2022-10-19T08:31:53.403Z,57.10
2022-10-19T08:34:21.249Z,56.22
2022-10-19T08:36:49.028Z,56.69
2022-10-19T08:39:17.883Z,56.91
2022-10-19T08:41:57.759Z,56.02
2022-10-19T08:44:44.828Z,55.37
2022-10-19T08:47:35.861Z,55.08
2022-10-19T08:50:16.828Z,55.93
2022-10-19T08:52:47.598Z,56.18
2022-10-19T08:55:30.948Z,56.54
2022-10-19T08:58:07.750Z,57.46
2022-10-19T09:00:50.098Z,57.09
2022-10-19T09:03:56.967Z,57.06
2022-10-19T09:06:57.343Z,57.46
2022-10-19T09:09:26.801Z,57.73
2022-10-19T09:12:03.055Z,57.81
2022-10-19T09:14:38.590Z,57.62
2022-10-19T09:17:13.155Z,58.10
2022-10-19T09:19:40.971Z,58.80
2022-10-19T09:22:18.740Z,58.16
2022-10-19T09:24:52.693Z,58.48
2022-10-19T09:27:26.152Z,58.35
2022-10-19T09:29:59.506Z,57.83
2022-10-19T09:32:39.126Z,58.00
2022-10-19T09:35:08.584Z,58.05
2022-10-19T09:37:43.147Z,58.18
2022-10-19T09:40:19.449Z,57.64
2022-10-19T09:42:51.147Z,57.38
2022-10-19T09:45:31.667Z,58.13
2022-10-19T09:48:08.724Z,58.28
2022-10-19T09:50:44.454Z,58.51
2022-10-19T09:53:20.475Z,58.93
2022-10-19T09:55:53.587Z,58.98
2022-10-19T09:58:29.120Z,58.46
2022-10-19T10:01:01.332Z,58.75
2022-10-19T10:03:43.494Z,58.31
2022-10-19T10:06:17.258Z,57.12
2022-10-19T10:08:50.864Z,57.27
2022-10-19T10:11:30.939Z,56.41
2022-10-19T10:14:07.537Z,55.76
2022-10-19T10:16:37.842Z,55.82
2022-10-19T10:19:13.310Z,54.39
2022-10-19T10:21:47.327Z,54.50
2022-10-19T10:24:16.589Z,54.70
2022-10-19T10:26:50.561Z,54.68
2022-10-19T10:29:27.025Z,54.95
2022-10-19T10:32:21.648Z,55.70
2022-10-19T10:35:01.281Z,56.09
2022-10-19T10:37:44.417Z,56.07
2022-10-19T10:40:28.672Z,55.77
2022-10-19T10:43:02.484Z,56.02
2022-10-19T10:45:37.122Z,55.77
2022-10-19T10:48:41.217Z,55.43
2022-10-19T10:51:30.812Z,55.52
2022-10-19T10:54:20.564Z,55.68
2022-10-19T10:57:16.701Z,55.86
2022-10-19T10:59:55.926Z,55.29
2022-10-19T11:02:30.479Z,54.87
2022-10-19T11:05:24.226Z,55.47
2022-10-19T11:08:20.897Z,54.82
2022-10-19T11:10:55.372Z,54.70
2022-10-19T11:13:31.579Z,53.62
2022-10-19T11:16:11.066Z,53.54
2022-10-19T11:18:47.488Z,53.37
2022-10-19T11:21:34.617Z,53.12
2022-10-19T11:24:23.208Z,53.00
2022-10-19T11:27:22.180Z,53.23
2022-10-19T11:30:08.587Z,53.07
2022-10-19T11:32:46.855Z,53.47
2022-10-19T11:35:39.197Z,53.95
2022-10-19T11:38:29.605Z,53.84
2022-10-19T11:41:30.832Z,53.88
2022-10-19T11:44:36.537Z,54.35
2022-10-19T11:47:16.493Z,54.78
2022-10-19T11:50:25.086Z,54.81
2022-10-19T11:53:29.739Z,54.70
2022-10-19T11:56:13.576Z,55.10
2022-10-19T11:58:53.104Z,55.42
2022-10-19T12:01:54.430Z,56.08
2022-10-19T12:04:41.047Z,56.49
2022-10-19T12:07:50.854Z,56.55
2022-10-19T12:10:26.230Z,56.21
2022-10-19T12:12:59.093Z,55.89
2022-10-19T12:15:32.415Z,56.32
2022-10-19T12:18:07.212Z,56.59
2022-10-19T12:20:43.769Z,56.55
2022-10-19T12:23:21.541Z,56.69
2022-10-19T12:25:50.889Z,56.95
2022-10-19T12:28:27.940Z,57.18
2022-10-19T12:30:58.129Z,57.19
2022-10-19T12:33:29.229Z,57.19
2022-10-19T12:36:12.875Z,57.15
2022-10-19T12:39:22.630Z,57.50
2022-10-19T12:42:10.757Z,58.02
2022-10-19T12:44:56.255Z,58.08
2022-10-19T12:47:26.815Z,58.10
2022-10-19T12:49:56.333Z,58.00
2022-10-19T12:52:52.368Z,57.75
2022-10-19T12:55:34.643Z,57.99
2022-10-19T12:58:20.116Z,58.51
2022-10-19T13:00:59.957Z,58.13
2022-10-19T13:03:33.391Z,57.86
2022-10-19T13:06:10.276Z,57.74
2022-10-19T13:08:46.466Z,58.01
2022-10-19T13:11:15.837Z,57.56
2022-10-19T13:13:58.097Z,57.77
2022-10-19T13:16:28.941Z,57.77
2022-10-19T13:18:59.628Z,57.95
2022-10-19T13:21:47.964Z,58.29
2022-10-19T13:24:24.825Z,58.68
2022-10-19T13:27:04.788Z,58.52
2022-10-19T13:29:41.308Z,58.21
2022-10-19T13:32:44.436Z,58.68
2022-10-19T13:35:34.356Z,58.57
2022-10-19T13:38:17.454Z,58.95
2022-10-19T13:40:50.998Z,58.99
2022-10-19T13:43:21.493Z,59.40
2022-10-19T13:45:59.571Z,59.43
2022-10-19T13:48:37.089Z,59.34
2022-10-19T13:51:23.247Z,59.38
2022-10-19T13:54:17.183Z,59.75
2022-10-19T13:57:03.844Z,59.91
2022-10-19T14:00:03.157Z,60.07
2022-10-19T14:02:51.121Z,60.02
2022-10-19T14:05:25.249Z,60.42
2022-10-19T14:08:12.055Z,60.39
2022-10-19T14:11:00.231Z,60.88
2022-10-19T14:13:28.928Z,61.46
2022-10-19T14:15:58.692Z,61.86
2022-10-19T14:18:30.602Z,62.26
2022-10-19T14:21:07.453Z,63.00
2022-10-19T14:23:37.310Z,63.28
2022-10-19T14:26:24.819Z,63.78
2022-10-19T14:28:54.561Z,64.19
2022-10-19T14:31:35.408Z,64.37
2022-10-19T14:34:04.746Z,64.63
2022-10-19T14:36:43.844Z,64.53
2022-10-19T14:39:27.653Z,64.43
2022-10-19T14:41:55.959Z,64.60
2022-10-19T14:44:41.246Z,64.65
2022-10-19T14:47:27.375Z,65.06
2022-10-19T14:49:55.277Z,65.22
2022-10-19T14:52:31.557Z,65.50
2022-10-19T14:55:05.489Z,65.35
2022-10-19T14:57:36.754Z,64.92
2022-10-19T15:00:11.728Z,64.80
2022-10-19T15:02:47.317Z,64.93
2022-10-19T15:05:24.789Z,64.91
2022-10-19T15:07:54.732Z,64.99
2022-10-19T15:10:51.104Z,65.17
2022-10-19T15:13:28.986Z,65.27
2022-10-19T15:15:56.844Z,65.17
2022-10-19T15:18:47.831Z,64.98
2022-10-19T15:21:19.175Z,65.00
2022-10-19T15:23:51.748Z,65.25
2022-10-19T15:26:27.438Z,65.00
2022-10-19T15:29:08.840Z,65.10
2022-10-19T15:31:36.684Z,65.31
2022-10-19T15:34:05.492Z,65.32
2022-10-19T15:36:33.615Z,65.44
2022-10-19T15:39:32.953Z,65.47
2022-10-19T15:42:32.052Z,65.90
2022-10-19T15:45:00.442Z,65.66
2022-10-19T15:47:28.439Z,65.67
2022-10-19T15:49:59.706Z,65.77
2022-10-19T15:52:30.654Z,66.10
2022-10-19T15:54:59.767Z,66.10
2022-10-19T15:57:34.736Z,66.12
2022-10-19T16:00:15.024Z,66.32
2022-10-19T16:02:43.377Z,66.38
2022-10-19T16:05:11.743Z,66.39
2022-10-19T16:07:41.588Z,66.44
2022-10-19T16:10:17.136Z,66.45
2022-10-19T16:12:45.106Z,66.58
2022-10-19T16:15:16.337Z,66.88
2022-10-19T16:17:47.388Z,67.19
2022-10-19T16:20:15.545Z,67.37
2022-10-19T16:22:44.566Z,67.39
2022-10-19T16:25:14.277Z,67.69
2022-10-19T16:27:42.173Z,67.66
2022-10-19T16:30:10.763Z,67.71
2022-10-19T16:32:40.011Z,68.06
2022-10-19T16:35:11.668Z,68.44
2022-10-19T16:37:39.518Z,68.48
2022-10-19T16:40:08.101Z,68.41
2022-10-19T16:42:36.271Z,68.45
2022-10-19T16:45:04.509Z,68.46
2022-10-19T16:47:32.334Z,68.37
2022-10-19T16:50:01.720Z,68.29
2022-10-19T16:52:31.988Z,68.24
2022-10-19T16:55:00.349Z,68.13
2022-10-19T16:57:28.371Z,68.33
2022-10-19T16:59:56.265Z,68.41
2022-10-19T17:02:24.147Z,68.47
2022-10-19T17:04:52.156Z,68.55
2022-10-19T17:07:19.987Z,68.39
2022-10-19T17:09:49.836Z,68.14
2022-10-19T17:12:20.472Z,68.29
2022-10-19T17:14:48.588Z,68.50
2022-10-19T17:17:17.263Z,68.92
2022-10-19T17:19:45.039Z,68.76
2022-10-19T17:22:12.842Z,68.85
2022-10-19T17:24:40.743Z,68.88
2022-10-19T17:27:08.754Z,69.00
2022-10-19T17:29:36.564Z,69.05
2022-10-19T17:32:04.481Z,69.26
2022-10-19T17:34:32.496Z,69.42
2022-10-19T17:37:00.526Z,69.60
2022-10-19T17:39:29.960Z,69.90
2022-10-19T17:42:02.239Z,69.85
2022-10-19T17:44:31.566Z,69.87
2022-10-19T17:47:01.450Z,70.07
2022-10-19T17:49:30.000Z,70.19
2022-10-19T17:51:58.473Z,70.20
2022-10-19T17:54:26.792Z,70.27
2022-10-19T17:56:54.911Z,70.19
2022-10-19T17:59:34.848Z,70.58
2022-10-19T18:02:04.725Z,70.36
2022-10-19T18:04:32.824Z,70.56
2022-10-19T18:07:01.782Z,70.66
2022-10-19T18:09:33.038Z,70.75
2022-10-19T18:12:04.884Z,70.67
2022-10-19T18:14:35.574Z,70.78
2022-10-19T18:17:03.388Z,70.55
2022-10-19T18:19:31.381Z,70.73
2022-10-19T18:21:59.196Z,70.81
2022-10-19T18:24:27.717Z,70.78
2022-10-19T18:26:55.641Z,70.79
2022-10-19T18:29:26.559Z,70.46
2022-10-19T18:31:55.214Z,70.54
2022-10-19T18:34:25.709Z,70.89
2022-10-19T18:36:54.743Z,70.67
2022-10-19T18:39:23.036Z,70.92
2022-10-19T18:41:55.045Z,70.52
2022-10-19T18:44:27.167Z,70.68
2022-10-19T18:46:57.507Z,70.76
2022-10-19T18:49:25.921Z,70.66
2022-10-19T18:51:55.719Z,70.63
2022-10-19T18:54:26.500Z,70.98
2022-10-19T18:56:55.395Z,71.11
2022-10-19T18:59:23.870Z,71.21
2022-10-19T19:01:52.163Z,71.15
2022-10-19T19:04:20.005Z,71.22
2022-10-19T19:06:47.848Z,71.08
2022-10-19T19:09:17.438Z,70.73
2022-10-19T19:11:45.646Z,70.66
2022-10-19T19:14:17.163Z,70.86
2022-10-19T19:16:45.479Z,70.74
2022-10-19T19:19:16.075Z,70.35
2022-10-19T19:21:45.102Z,70.54
2022-10-19T19:24:16.966Z,70.67
2022-10-19T19:26:52.828Z,70.47
2022-10-19T19:29:22.249Z,70.34
2022-10-19T19:31:51.683Z,70.19
2022-10-19T19:34:19.495Z,69.97
2022-10-19T19:36:48.533Z,69.74
2022-10-19T19:39:20.182Z,69.61
2022-10-19T19:41:49.711Z,69.19
2022-10-19T19:44:18.067Z,69.11
2022-10-19T19:46:45.842Z,68.64
2022-10-19T19:49:14.372Z,68.23
2022-10-19T19:51:42.499Z,67.88
2022-10-19T19:54:11.468Z,67.42
2022-10-19T19:56:40.119Z,66.92
2022-10-19T19:59:12.655Z,66.66
2022-10-19T20:01:41.244Z,66.70
2022-10-19T20:04:09.780Z,66.17
2022-10-19T20:06:39.001Z,66.19
2022-10-19T20:09:08.427Z,66.32
2022-10-19T20:11:41.901Z,65.66
2022-10-19T20:14:11.690Z,65.47
2022-10-19T20:16:40.374Z,65.59
2022-10-19T20:19:11.339Z,65.69
2022-10-19T20:21:40.031Z,65.41
2022-10-19T20:24:07.969Z,65.18
2022-10-19T20:26:36.138Z,64.91
2022-10-19T20:29:05.333Z,65.07
2022-10-19T20:31:39.393Z,64.38
2022-10-19T20:34:13.957Z,64.42
2022-10-19T20:36:42.778Z,64.18
2022-10-19T20:39:10.610Z,63.95
2022-10-19T20:41:39.053Z,63.84
2022-10-19T20:44:07.278Z,64.06
2022-10-19T20:46:37.125Z,63.75
2022-10-19T20:49:05.628Z,63.05
2022-10-19T20:51:36.932Z,63.30
2022-10-19T20:54:12.304Z,62.99
2022-10-19T20:56:42.315Z,62.84
2022-10-19T20:59:28.313Z,62.93
2022-10-19T21:01:57.493Z,62.55
2022-10-19T21:04:28.734Z,62.24
2022-10-19T21:06:57.327Z,62.40
2022-10-19T21:09:26.047Z,62.52
2022-10-19T21:11:53.859Z,62.32
2022-10-19T21:14:28.004Z,62.12
2022-10-19T21:16:58.469Z,62.04
2022-10-19T21:19:28.220Z,62.26
2022-10-19T21:22:01.583Z,62.07
2022-10-19T21:24:35.540Z,61.69
2022-10-19T21:27:05.111Z,60.89
2022-10-19T21:29:33.009Z,60.44
2022-10-19T21:32:00.811Z,60.29
2022-10-19T21:34:32.279Z,60.62
2022-10-19T21:37:00.211Z,60.51
2022-10-19T21:39:28.560Z,60.31
2022-10-19T21:41:56.445Z,60.46
2022-10-19T21:44:24.372Z,60.16
2022-10-19T21:46:52.156Z,60.20
2022-10-19T21:49:23.229Z,60.19
2022-10-19T21:51:54.353Z,60.48
2022-10-19T21:54:29.200Z,60.37
2022-10-19T21:56:58.522Z,60.49
2022-10-19T21:59:26.418Z,60.44
2022-10-19T22:01:55.345Z,60.74
2022-10-19T22:04:23.712Z,60.93
2022-10-19T22:06:51.542Z,61.16
2022-10-19T22:09:21.925Z,61.03
2022-10-19T22:11:49.756Z,61.19
2022-10-19T22:14:18.048Z,61.34
2022-10-19T22:16:45.925Z,61.25
2022-10-19T22:19:14.274Z,61.54
2022-10-19T22:21:42.023Z,61.15
2022-10-19T22:24:14.832Z,61.54
2022-10-19T22:26:46.392Z,61.67
2022-10-19T22:29:14.765Z,61.71
2022-10-19T22:31:43.197Z,61.79
2022-10-19T22:34:14.572Z,62.09
2022-10-19T22:36:42.843Z,62.17
2022-10-19T22:39:11.028Z,62.33
2022-10-19T22:41:38.728Z,62.29
2022-10-19T22:44:06.457Z,62.08
2022-10-19T22:46:34.400Z,62.15
2022-10-19T22:49:02.226Z,61.95
2022-10-19T22:51:30.197Z,62.05
2022-10-19T22:53:58.016Z,62.30
2022-10-19T22:56:25.868Z,62.15
2022-10-19T22:58:53.632Z,61.94
2022-10-19T23:01:21.574Z,62.17
2022-10-19T23:03:49.407Z,62.30
2022-10-19T23:06:17.249Z,62.38
2022-10-19T23:08:45.456Z,62.18
2022-10-19T23:11:14.377Z,62.23
2022-10-19T23:13:42.874Z,62.44
2022-10-19T23:16:10.990Z,62.65
2022-10-19T23:18:40.501Z,62.87
2022-10-19T23:21:11.947Z,62.82
2022-10-19T23:23:40.240Z,62.82
2022-10-19T23:26:14.673Z,63.08
2022-10-19T23:28:44.906Z,63.42
2022-10-19T23:31:14.012Z,63.27
2022-10-19T23:33:43.055Z,63.24
2022-10-19T23:36:16.103Z,63.53
2022-10-19T23:38:45.161Z,63.70
2022-10-19T23:41:13.794Z,63.88
2022-10-19T23:43:42.669Z,64.06
2022-10-19T23:46:11.050Z,64.25
2022-10-19T23:48:39.218Z,64.52
2022-10-19T23:51:09.432Z,64.41
2022-10-19T23:53:41.188Z,64.68
2022-10-19T23:56:29.639Z,65.11
2022-10-19T23:58:57.524Z,65.14
